createdAt,value
2023-04-19T00:01:35.488Z,103250.41
2023-04-19T00:06:42.115Z,103254.88
2023-04-19T00:11:46.162Z,103254.69
2023-04-19T00:16:50.198Z,103252.47
2023-04-19T00:21:56.753Z,103248.41
2023-04-19T00:27:03.809Z,103256.81
2023-04-19T00:32:08.737Z,103247.31
2023-04-19T00:37:12.774Z,103242.50
2023-04-19T00:42:19.832Z,103243.72
2023-04-19T00:47:22.134Z,103247.31
2023-04-19T00:52:29.097Z,103239.72
2023-04-19T00:57:33.970Z,103236.84
2023-04-19T01:02:37.990Z,103233.78
2023-04-19T01:07:39.900Z,103249.16
2023-04-19T01:12:44.380Z,103246.78
2023-04-19T01:17:46.299Z,103243.88
2023-04-19T01:22:50.372Z,103238.94
2023-04-19T01:27:54.294Z,103244.13
2023-04-19T01:32:58.793Z,103244.31
2023-04-19T01:38:01.079Z,103241.75
2023-04-19T01:43:05.490Z,103244.50
2023-04-19T01:48:10.070Z,103242.09
2023-04-19T01:53:18.920Z,103244.00
2023-04-19T01:58:21.038Z,103232.09
2023-04-19T02:03:28.043Z,103240.25
2023-04-19T02:08:30.156Z,103236.06
2023-04-19T02:13:36.094Z,103233.47
2023-04-19T02:18:43.540Z,103235.41
2023-04-19T02:23:45.756Z,103232.81
2023-04-19T02:28:52.140Z,103230.94
2023-04-19T02:33:58.428Z,103230.84
2023-04-19T02:39:02.174Z,103225.63
2023-04-19T02:44:06.101Z,103228.19
2023-04-19T02:49:10.395Z,103226.81
2023-04-19T02:54:14.924Z,103234.78
2023-04-19T02:59:18.706Z,103235.91
2023-04-19T03:04:22.137Z,103240.44
2023-04-19T03:09:27.270Z,103243.53
2023-04-19T03:14:34.070Z,103238.56
2023-04-19T03:19:36.124Z,103235.47
2023-04-19T03:24:38.254Z,103229.50
2023-04-19T03:29:57.333Z,103223.59
2023-04-19T03:35:02.526Z,103224.69
2023-04-19T03:40:08.504Z,103219.22
2023-04-19T03:45:15.067Z,103217.19
2023-04-19T03:50:21.234Z,103211.34
2023-04-19T03:55:26.580Z,103215.34
2023-04-19T04:00:28.345Z,103210.38
2023-04-19T04:05:35.215Z,103205.41
2023-04-19T04:10:37.147Z,103218.75
2023-04-19T04:15:41.922Z,103232.09
2023-04-19T04:20:46.880Z,103228.19
2023-04-19T04:25:58.036Z,103224.47
2023-04-19T04:31:03.583Z,103230.75
2023-04-19T04:36:12.074Z,103236.91
2023-04-19T04:41:17.096Z,103229.56
2023-04-19T04:46:21.766Z,103237.03
2023-04-19T04:51:28.510Z,103240.53
2023-04-19T04:56:31.873Z,103242.50
2023-04-19T05:01:34.075Z,103238.88
2023-04-19T05:06:36.919Z,103238.06
2023-04-19T05:11:38.957Z,103233.72
2023-04-19T05:16:43.810Z,103240.75
2023-04-19T05:21:45.694Z,103236.00
2023-04-19T05:26:50.699Z,103236.25
2023-04-19T05:31:58.500Z,103237.78
2023-04-19T05:37:09.303Z,103243.88
2023-04-19T05:42:11.252Z,103239.25
2023-04-19T05:47:20.542Z,103238.69
2023-04-19T05:52:34.523Z,103238.13
2023-04-19T05:57:42.492Z,103240.72
2023-04-19T06:02:47.460Z,103236.72
2023-04-19T06:07:59.429Z,103235.25
2023-04-19T06:13:04.125Z,103231.16
2023-04-19T06:18:10.281Z,103238.16
2023-04-19T06:23:20.901Z,103231.88
2023-04-19T06:28:22.609Z,103248.63
2023-04-19T06:33:26.598Z,103231.91
2023-04-19T06:38:31.462Z,103227.47
2023-04-19T06:43:33.375Z,103231.34
2023-04-19T06:48:40.310Z,103234.97
2023-04-19T06:53:44.788Z,103236.09
2023-04-19T06:58:46.539Z,103241.53
2023-04-19T07:03:48.597Z,103247.75
2023-04-19T07:08:50.730Z,103242.34
2023-04-19T07:13:52.478Z,103233.41
2023-04-19T07:18:54.272Z,103224.47
2023-04-19T07:23:58.222Z,103235.00
2023-04-19T07:29:02.713Z,103235.81
2023-04-19T07:34:04.497Z,103231.97
2023-04-19T07:39:08.501Z,103229.84
2023-04-19T07:44:13.597Z,103226.16
2023-04-19T07:49:18.214Z,103225.59
2023-04-19T07:54:22.934Z,103225.25
2023-04-19T07:59:27.049Z,103213.59
2023-04-19T08:04:31.627Z,103223.25
2023-04-19T08:09:34.582Z,103215.25
2023-04-19T08:19:44.744Z,103209.50
2023-04-19T08:24:46.521Z,103202.47
2023-04-19T08:29:52.769Z,103201.03
2023-04-19T08:34:57.585Z,103192.41
2023-04-19T08:40:01.510Z,103174.06
2023-04-19T08:50:28.307Z,103177.56
2023-04-19T08:55:36.025Z,103178.03
2023-04-19T09:00:41.475Z,103178.38
2023-04-19T09:05:45.558Z,103161.91
2023-04-19T09:10:59.525Z,103169.47
2023-04-19T09:16:01.292Z,103154.38
2023-04-19T09:21:03.151Z,103154.56
2023-04-19T09:26:22.786Z,103142.44
2023-04-19T09:31:47.309Z,103146.50
2023-04-19T09:37:00.717Z,103136.44
2023-04-19T09:42:13.107Z,103120.38
2023-04-19T09:47:30.211Z,103107.88
2023-04-19T09:52:32.933Z,103105.84
2023-04-19T09:57:34.902Z,103106.94
2023-04-19T10:02:37.107Z,103099.00
2023-04-19T10:07:41.477Z,103088.16
2023-04-19T10:13:11.019Z,103083.75
2023-04-19T10:18:11.283Z,103071.25
2023-04-19T10:23:13.189Z,103061.16
2023-04-19T10:28:20.456Z,103067.41
2023-04-19T10:33:31.839Z,103055.41
2023-04-19T10:38:36.844Z,103045.16
2023-04-19T10:43:39.415Z,103037.19
2023-04-19T10:49:00.412Z,103021.88
2023-04-19T10:54:27.602Z,103031.22
2023-04-19T10:59:34.715Z,103023.66
2023-04-19T11:04:36.630Z,103021.63
2023-04-19T11:09:42.015Z,103021.44
2023-04-19T11:14:45.306Z,102998.00
2023-04-19T11:19:57.037Z,103000.25
2023-04-19T11:25:21.178Z,102979.81
2023-04-19T11:30:29.501Z,102986.06
2023-04-19T11:35:31.441Z,102974.44
2023-04-19T11:40:33.301Z,102961.34
2023-04-19T11:45:39.558Z,102955.78
2023-04-19T11:50:43.943Z,102945.63
2023-04-19T11:55:57.574Z,102947.56
2023-04-19T12:01:09.528Z,102950.13
2023-04-19T12:06:13.755Z,102932.84
2023-04-19T12:11:24.518Z,102938.63
2023-04-19T12:16:29.294Z,102929.03
2023-04-19T12:21:33.925Z,102922.19
2023-04-19T12:26:35.868Z,102914.03
2023-04-19T12:31:39.960Z,102909.66
2023-04-19T12:36:44.664Z,102902.81
2023-04-19T12:41:48.785Z,102901.13
2023-04-19T12:46:50.511Z,102891.41
2023-04-19T12:51:52.170Z,102886.81
2023-04-19T12:56:53.842Z,102883.44
2023-04-19T13:02:02.837Z,102877.38
2023-04-19T13:07:07.051Z,102867.28
2023-04-19T13:12:12.321Z,102870.47
2023-04-19T13:17:14.025Z,102870.53
2023-04-19T13:22:17.744Z,102849.81
2023-04-19T13:27:19.490Z,102851.75
2023-04-19T13:32:23.749Z,102845.53
2023-04-19T13:37:27.835Z,102825.53
2023-04-19T13:42:29.606Z,102831.94
2023-04-19T13:47:31.422Z,102827.19
2023-04-19T13:52:37.953Z,102837.41
2023-04-19T13:57:42.754Z,102823.28
2023-04-19T14:02:46.117Z,102819.34
2023-04-19T14:07:47.992Z,102804.97
2023-04-19T14:12:52.760Z,102806.53
2023-04-19T14:17:54.609Z,102795.38
2023-04-19T14:22:58.916Z,102810.19
2023-04-19T14:28:00.673Z,102791.34
2023-04-19T14:33:02.425Z,102799.00
2023-04-19T14:38:04.297Z,102786.81
2023-04-19T14:43:08.381Z,102785.84
2023-04-19T14:48:20.819Z,102787.50
2023-04-19T14:53:26.378Z,102783.59
2023-04-19T14:58:28.240Z,102783.41
2023-04-19T15:03:30.128Z,102774.13
2023-04-19T15:08:34.164Z,102784.16
2023-04-19T15:13:35.989Z,102754.97
2023-04-19T15:18:40.664Z,102767.03
2023-04-19T15:23:42.625Z,102767.19
2023-04-19T15:28:46.763Z,102757.78
2023-04-19T15:33:48.457Z,102760.53
2023-04-19T15:38:52.504Z,102760.97
2023-04-19T15:43:56.506Z,102766.56
2023-04-19T15:49:00.446Z,102770.94
2023-04-19T15:54:02.246Z,102759.94
2023-04-19T15:59:08.636Z,102765.47
2023-04-19T16:04:13.130Z,102775.19
2023-04-19T16:09:17.829Z,102764.50
2023-04-19T16:14:19.771Z,102774.66
2023-04-19T16:19:23.255Z,102771.44
2023-04-19T16:24:25.254Z,102773.25
2023-04-19T16:29:29.308Z,102773.22
2023-04-19T16:34:33.619Z,102772.31
2023-04-19T16:39:37.639Z,102774.16
2023-04-19T16:44:39.454Z,102778.00
2023-04-19T16:49:41.136Z,102772.44
2023-04-19T16:54:45.800Z,102764.50
2023-04-19T16:59:52.865Z,102766.13
2023-04-19T17:04:58.684Z,102775.16
2023-04-19T17:10:03.124Z,102765.84
2023-04-19T17:15:07.792Z,102767.84
2023-04-19T17:20:10.001Z,102767.19
2023-04-19T17:25:11.700Z,102769.94
2023-04-19T17:30:13.677Z,102759.44
2023-04-19T17:35:15.998Z,102749.81
2023-04-19T17:40:21.064Z,102766.47
2023-04-19T17:45:25.214Z,102764.28
2023-04-19T17:50:29.409Z,102759.19
2023-04-19T17:55:32.235Z,102757.50
2023-04-19T18:00:36.509Z,102758.84
2023-04-19T18:05:41.551Z,102767.00
2023-04-19T18:10:45.367Z,102760.25
2023-04-19T18:15:49.717Z,102764.25
2023-04-19T18:20:51.377Z,102760.81
2023-04-19T18:25:55.681Z,102755.91
2023-04-19T18:30:59.728Z,102759.19
2023-04-19T18:36:06.630Z,102758.34
2023-04-19T18:41:11.354Z,102754.75
2023-04-19T18:46:13.820Z,102767.88
2023-04-19T18:51:15.640Z,102763.59
2023-04-19T18:56:18.608Z,102762.38
2023-04-19T19:01:21.285Z,102767.69
2023-04-19T19:06:25.404Z,102773.63
2023-04-19T19:11:51.969Z,102774.38
2023-04-19T19:16:52.894Z,102773.13
2023-04-19T19:21:57.236Z,102775.59
2023-04-19T19:27:04.140Z,102773.94
2023-04-19T19:32:09.663Z,102778.47
2023-04-19T19:37:11.958Z,102778.31
2023-04-19T19:42:16.377Z,102778.47
2023-04-19T19:47:18.352Z,102775.94
2023-04-19T19:52:21.537Z,102771.16
2023-04-19T20:02:34.073Z,102776.53
2023-04-19T20:08:00.383Z,102769.38
2023-04-19T20:13:02.098Z,102768.31
2023-04-19T20:18:08.418Z,102768.19
2023-04-19T20:23:10.155Z,102763.66
2023-04-19T20:28:12.591Z,102768.84
2023-04-19T20:33:18.966Z,102765.56
2023-04-19T20:38:28.616Z,102756.50
2023-04-19T20:43:35.334Z,102745.44
2023-04-19T20:48:39.472Z,102744.09
2023-04-19T20:53:41.307Z,102729.72
2023-04-19T20:58:43.295Z,102724.56
2023-04-19T21:03:45.273Z,102736.50
2023-04-19T21:08:47.018Z,102720.56
2023-04-19T21:13:48.830Z,102725.91
2023-04-19T21:18:52.840Z,102715.13
2023-04-19T21:23:56.950Z,102718.72
2023-04-19T21:29:05.560Z,102712.41
2023-04-19T21:34:14.558Z,102702.97
2023-04-19T21:39:18.646Z,102704.81
2023-04-19T21:44:22.700Z,102702.78
2023-04-19T21:49:24.439Z,102697.69
2023-04-19T21:54:33.235Z,102697.09
2023-04-19T21:59:36.439Z,102688.63
2023-04-19T22:04:41.529Z,102684.97
2023-04-19T22:09:43.432Z,102674.16
2023-04-19T22:14:47.388Z,102677.44
2023-04-19T22:19:51.542Z,102678.06
2023-04-19T22:24:57.880Z,102675.72
2023-04-19T22:30:00.009Z,102669.25
2023-04-19T22:35:06.827Z,102658.25
2023-04-19T22:40:09.571Z,102662.34
2023-04-19T22:45:11.436Z,102662.06
2023-04-19T22:50:13.110Z,102649.13
2023-04-19T22:55:17.346Z,102637.31
2023-04-19T23:00:20.346Z,102624.09
2023-04-19T23:05:26.884Z,102612.66
2023-04-19T23:10:28.765Z,102603.22
2023-04-19T23:15:33.099Z,102599.00
2023-04-19T23:20:37.650Z,102596.63
2023-04-19T23:25:39.291Z,102576.31
2023-04-19T23:30:41.103Z,102577.72
2023-04-19T23:35:44.992Z,102589.59
2023-04-19T23:40:51.508Z,102567.00
2023-04-19T23:45:57.856Z,102564.38
2023-04-19T23:50:59.548Z,102556.78
2023-04-19T23:56:03.573Z,102546.69
